sensor_id;sensor_type;location;lat;lon;timestamp;P1;durP1;ratioP1;P2;durP2;ratioP2
63120;SDS011;54478;48.684;20.114;2024-01-10T00:00:28;11.95;;;6.30;;
63120;SDS011;54478;48.684;20.114;2024-01-10T00:02:56;17.92;;;7.63;;
63120;SDS011;54478;48.684;20.114;2024-01-10T00:05:24;17.02;;;7.07;;
63120;SDS011;54478;48.684;20.114;2024-01-10T00:07:52;27.13;;;8.77;;
63120;SDS011;54478;48.684;20.114;2024-01-10T00:10:17;22.42;;;9.18;;
63120;SDS011;54478;48.684;20.114;2024-01-10T00:12:45;37.05;;;10.82;;
63120;SDS011;54478;48.684;20.114;2024-01-10T00:15:14;22.10;;;10.38;;
63120;SDS011;54478;48.684;20.114;2024-01-10T00:17:42;26.58;;;8.57;;
63120;SDS011;54478;48.684;20.114;2024-01-10T00:20:10;28.88;;;10.15;;
63120;SDS011;54478;48.684;20.114;2024-01-10T00:22:38;8.55;;;5.63;;
63120;SDS011;54478;48.684;20.114;2024-01-10T00:25:06;9.65;;;5.72;;
63120;SDS011;54478;48.684;20.114;2024-01-10T00:27:34;7.97;;;5.68;;
63120;SDS011;54478;48.684;20.114;2024-01-10T00:30:03;9.15;;;4.05;;
63120;SDS011;54478;48.684;20.114;2024-01-10T00:32:31;10.43;;;5.85;;
63120;SDS011;54478;48.684;20.114;2024-01-10T00:34:59;23.73;;;9.40;;
63120;SDS011;54478;48.684;20.114;2024-01-10T00:37:27;13.45;;;7.15;;
63120;SDS011;54478;48.684;20.114;2024-01-10T00:39:55;15.63;;;6.97;;
63120;SDS011;54478;48.684;20.114;2024-01-10T00:42:23;8.93;;;4.70;;
63120;SDS011;54478;48.684;20.114;2024-01-10T00:44:51;23.52;;;6.32;;
63120;SDS011;54478;48.684;20.114;2024-01-10T00:47:19;10.40;;;6.22;;
63120;SDS011;54478;48.684;20.114;2024-01-10T00:49:47;18.90;;;6.20;;
63120;SDS011;54478;48.684;20.114;2024-01-10T00:52:15;10.27;;;6.00;;
63120;SDS011;54478;48.684;20.114;2024-01-10T00:54:43;4.53;;;3.13;;
63120;SDS011;54478;48.684;20.114;2024-01-10T00:57:12;14.77;;;4.65;;
63120;SDS011;54478;48.684;20.114;2024-01-10T00:59:40;3.30;;;2.90;;
63120;SDS011;54478;48.684;20.114;2024-01-10T01:02:08;11.48;;;5.40;;
63120;SDS011;54478;48.684;20.114;2024-01-10T01:04:36;6.97;;;2.95;;
63120;SDS011;54478;48.684;20.114;2024-01-10T01:07:04;12.32;;;3.35;;
63120;SDS011;54478;48.684;20.114;2024-01-10T01:09:29;9.43;;;3.72;;
63120;SDS011;54478;48.684;20.114;2024-01-10T01:11:57;10.68;;;2.97;;
63120;SDS011;54478;48.684;20.114;2024-01-10T01:14:26;9.80;;;4.60;;
63120;SDS011;54478;48.684;20.114;2024-01-10T01:16:54;4.85;;;3.33;;
63120;SDS011;54478;48.684;20.114;2024-01-10T01:19:22;7.15;;;5.38;;
63120;SDS011;54478;48.684;20.114;2024-01-10T01:21:50;7.75;;;3.63;;
63120;SDS011;54478;48.684;20.114;2024-01-10T01:24:18;5.63;;;3.83;;
63120;SDS011;54478;48.684;20.114;2024-01-10T01:26:46;17.90;;;4.82;;
63120;SDS011;54478;48.684;20.114;2024-01-10T01:29:14;16.45;;;3.35;;
63120;SDS011;54478;48.684;20.114;2024-01-10T01:31:42;5.32;;;3.90;;
63120;SDS011;54478;48.684;20.114;2024-01-10T01:34:10;2.40;;;1.83;;
63120;SDS011;54478;48.684;20.114;2024-01-10T01:36:38;3.38;;;1.92;;
63120;SDS011;54478;48.684;20.114;2024-01-10T01:39:07;2.83;;;1.77;;
63120;SDS011;54478;48.684;20.114;2024-01-10T01:41:35;6.15;;;3.28;;
63120;SDS011;54478;48.684;20.114;2024-01-10T01:44:03;4.43;;;4.07;;
63120;SDS011;54478;48.684;20.114;2024-01-10T01:46:31;7.45;;;2.78;;
63120;SDS011;54478;48.684;20.114;2024-01-10T01:49:00;4.38;;;1.98;;
63120;SDS011;54478;48.684;20.114;2024-01-10T01:51:28;8.00;;;2.22;;
63120;SDS011;54478;48.684;20.114;2024-01-10T01:53:57;4.90;;;2.42;;
63120;SDS011;54478;48.684;20.114;2024-01-10T01:56:25;9.15;;;1.98;;
63120;SDS011;54478;48.684;20.114;2024-01-10T01:58:54;6.38;;;2.20;;
63120;SDS011;54478;48.684;20.114;2024-01-10T02:01:22;8.38;;;2.42;;
63120;SDS011;54478;48.684;20.114;2024-01-10T02:03:51;6.18;;;1.85;;
63120;SDS011;54478;48.684;20.114;2024-01-10T02:06:19;2.83;;;1.30;;
63120;SDS011;54478;48.684;20.114;2024-01-10T02:08:44;1.48;;;1.38;;
63120;SDS011;54478;48.684;20.114;2024-01-10T02:11:12;9.18;;;3.58;;
63120;SDS011;54478;48.684;20.114;2024-01-10T02:13:40;2.35;;;2.15;;
63120;SDS011;54478;48.684;20.114;2024-01-10T02:16:08;4.25;;;1.92;;
63120;SDS011;54478;48.684;20.114;2024-01-10T02:18:37;7.00;;;4.13;;
63120;SDS011;54478;48.684;20.114;2024-01-10T02:21:05;9.60;;;3.97;;
63120;SDS011;54478;48.684;20.114;2024-01-10T02:23:33;13.98;;;3.95;;
63120;SDS011;54478;48.684;20.114;2024-01-10T02:26:01;4.90;;;3.17;;
63120;SDS011;54478;48.684;20.114;2024-01-10T02:28:30;2.80;;;2.20;;
63120;SDS011;54478;48.684;20.114;2024-01-10T02:30:58;6.45;;;3.55;;
63120;SDS011;54478;48.684;20.114;2024-01-10T02:33:27;2.38;;;2.17;;
63120;SDS011;54478;48.684;20.114;2024-01-10T02:35:55;6.47;;;2.63;;
63120;SDS011;54478;48.684;20.114;2024-01-10T02:38:23;2.03;;;1.35;;
63120;SDS011;54478;48.684;20.114;2024-01-10T02:40:51;12.40;;;1.77;;
63120;SDS011;54478;48.684;20.114;2024-01-10T02:43:19;5.40;;;2.22;;
63120;SDS011;54478;48.684;20.114;2024-01-10T02:45:47;3.45;;;1.27;;
63120;SDS011;54478;48.684;20.114;2024-01-10T02:48:15;1.30;;;1.15;;
63120;SDS011;54478;48.684;20.114;2024-01-10T02:50:43;1.25;;;1.17;;
63120;SDS011;54478;48.684;20.114;2024-01-10T02:53:11;5.15;;;1.77;;
63120;SDS011;54478;48.684;20.114;2024-01-10T02:55:40;8.82;;;1.70;;
63120;SDS011;54478;48.684;20.114;2024-01-10T02:58:08;5.88;;;2.80;;
63120;SDS011;54478;48.684;20.114;2024-01-10T03:00:36;9.35;;;4.75;;
63120;SDS011;54478;48.684;20.114;2024-01-10T03:03:05;11.05;;;5.28;;
63120;SDS011;54478;48.684;20.114;2024-01-10T03:05:33;6.88;;;4.07;;
63120;SDS011;54478;48.684;20.114;2024-01-10T03:08:01;35.60;;;9.27;;
63120;SDS011;54478;48.684;20.114;2024-01-10T03:10:27;28.23;;;8.85;;
63120;SDS011;54478;48.684;20.114;2024-01-10T03:12:55;24.60;;;9.95;;
63120;SDS011;54478;48.684;20.114;2024-01-10T03:15:23;10.98;;;3.30;;
63120;SDS011;54478;48.684;20.114;2024-01-10T03:17:51;6.00;;;2.20;;
63120;SDS011;54478;48.684;20.114;2024-01-10T03:20:19;1.92;;;1.55;;
63120;SDS011;54478;48.684;20.114;2024-01-10T03:22:47;2.45;;;1.60;;
63120;SDS011;54478;48.684;20.114;2024-01-10T03:25:15;3.47;;;1.52;;
63120;SDS011;54478;48.684;20.114;2024-01-10T03:27:43;1.30;;;0.80;;
63120;SDS011;54478;48.684;20.114;2024-01-10T03:30:12;4.72;;;1.80;;
63120;SDS011;54478;48.684;20.114;2024-01-10T03:32:40;2.58;;;1.98;;
63120;SDS011;54478;48.684;20.114;2024-01-10T03:35:08;2.65;;;1.80;;
63120;SDS011;54478;48.684;20.114;2024-01-10T03:37:36;1.83;;;1.38;;
63120;SDS011;54478;48.684;20.114;2024-01-10T03:40:01;2.88;;;1.33;;
63120;SDS011;54478;48.684;20.114;2024-01-10T03:42:30;1.95;;;1.10;;
63120;SDS011;54478;48.684;20.114;2024-01-10T03:44:58;1.73;;;0.60;;
63120;SDS011;54478;48.684;20.114;2024-01-10T03:47:26;0.95;;;0.88;;
63120;SDS011;54478;48.684;20.114;2024-01-10T03:49:54;2.22;;;1.50;;
63120;SDS011;54478;48.684;20.114;2024-01-10T03:52:22;2.35;;;0.93;;
63120;SDS011;54478;48.684;20.114;2024-01-10T03:54:49;2.20;;;1.50;;
63120;SDS011;54478;48.684;20.114;2024-01-10T03:57:17;4.00;;;1.67;;
63120;SDS011;54478;48.684;20.114;2024-01-10T03:59:45;6.45;;;1.67;;
63120;SDS011;54478;48.684;20.114;2024-01-10T04:02:13;4.07;;;2.20;;
63120;SDS011;54478;48.684;20.114;2024-01-10T04:04:41;5.68;;;1.73;;
63120;SDS011;54478;48.684;20.114;2024-01-10T04:07:10;0.68;;;0.68;;
63120;SDS011;54478;48.684;20.114;2024-01-10T04:09:35;2.05;;;1.75;;
63120;SDS011;54478;48.684;20.114;2024-01-10T04:12:03;2.20;;;2.03;;
63120;SDS011;54478;48.684;20.114;2024-01-10T04:14:32;5.25;;;2.83;;
63120;SDS011;54478;48.684;20.114;2024-01-10T04:17:00;19.08;;;5.82;;
63120;SDS011;54478;48.684;20.114;2024-01-10T04:19:29;7.72;;;3.95;;
63120;SDS011;54478;48.684;20.114;2024-01-10T04:21:57;5.20;;;2.38;;
63120;SDS011;54478;48.684;20.114;2024-01-10T04:24:25;9.35;;;4.30;;
63120;SDS011;54478;48.684;20.114;2024-01-10T04:26:53;14.38;;;4.70;;
63120;SDS011;54478;48.684;20.114;2024-01-10T04:29:21;3.47;;;2.90;;
63120;SDS011;54478;48.684;20.114;2024-01-10T04:31:49;9.40;;;3.28;;
63120;SDS011;54478;48.684;20.114;2024-01-10T04:34:17;2.50;;;1.40;;
63120;SDS011;54478;48.684;20.114;2024-01-10T04:36:46;19.88;;;2.20;;
63120;SDS011;54478;48.684;20.114;2024-01-10T04:39:14;6.15;;;2.22;;
63120;SDS011;54478;48.684;20.114;2024-01-10T04:41:42;11.90;;;3.70;;
63120;SDS011;54478;48.684;20.114;2024-01-10T04:44:10;7.90;;;5.70;;
63120;SDS011;54478;48.684;20.114;2024-01-10T04:46:38;10.18;;;6.72;;
63120;SDS011;54478;48.684;20.114;2024-01-10T04:49:06;5.38;;;3.17;;
63120;SDS011;54478;48.684;20.114;2024-01-10T04:51:34;12.52;;;5.50;;
63120;SDS011;54478;48.684;20.114;2024-01-10T04:54:02;12.07;;;5.95;;
63120;SDS011;54478;48.684;20.114;2024-01-10T04:56:30;13.05;;;5.07;;
63120;SDS011;54478;48.684;20.114;2024-01-10T04:58:58;14.73;;;7.50;;
63120;SDS011;54478;48.684;20.114;2024-01-10T05:01:26;12.07;;;6.35;;
63120;SDS011;54478;48.684;20.114;2024-01-10T05:03:54;9.52;;;5.20;;
63120;SDS011;54478;48.684;20.114;2024-01-10T05:06:22;6.55;;;2.08;;
63120;SDS011;54478;48.684;20.114;2024-01-10T05:08:48;3.85;;;2.35;;
63120;SDS011;54478;48.684;20.114;2024-01-10T05:11:16;4.05;;;1.90;;
63120;SDS011;54478;48.684;20.114;2024-01-10T05:13:44;6.18;;;3.78;;
63120;SDS011;54478;48.684;20.114;2024-01-10T05:16:12;5.07;;;2.75;;
63120;SDS011;54478;48.684;20.114;2024-01-10T05:18:40;7.18;;;3.15;;
63120;SDS011;54478;48.684;20.114;2024-01-10T05:21:08;6.53;;;3.20;;
63120;SDS011;54478;48.684;20.114;2024-01-10T05:23:36;1.20;;;1.17;;
63120;SDS011;54478;48.684;20.114;2024-01-10T05:26:06;8.68;;;2.88;;
63120;SDS011;54478;48.684;20.114;2024-01-10T05:28:34;13.18;;;5.10;;
63120;SDS011;54478;48.684;20.114;2024-01-10T05:31:02;7.13;;;4.05;;
63120;SDS011;54478;48.684;20.114;2024-01-10T05:33:31;8.75;;;5.45;;
63120;SDS011;54478;48.684;20.114;2024-01-10T05:35:59;8.60;;;5.38;;
63120;SDS011;54478;48.684;20.114;2024-01-10T05:38:28;10.05;;;6.03;;
63120;SDS011;54478;48.684;20.114;2024-01-10T05:40:56;10.35;;;5.00;;
63120;SDS011;54478;48.684;20.114;2024-01-10T05:43:24;11.23;;;6.05;;
63120;SDS011;54478;48.684;20.114;2024-01-10T05:45:52;14.88;;;8.65;;
63120;SDS011;54478;48.684;20.114;2024-01-10T05:48:21;14.35;;;8.65;;
63120;SDS011;54478;48.684;20.114;2024-01-10T05:50:49;11.65;;;5.82;;
63120;SDS011;54478;48.684;20.114;2024-01-10T05:53:19;14.48;;;7.55;;
63120;SDS011;54478;48.684;20.114;2024-01-10T05:55:46;11.52;;;6.28;;
63120;SDS011;54478;48.684;20.114;2024-01-10T05:58:13;18.63;;;5.43;;
63120;SDS011;54478;48.684;20.114;2024-01-10T06:00:42;10.25;;;4.80;;
63120;SDS011;54478;48.684;20.114;2024-01-10T06:03:10;13.63;;;8.20;;
63120;SDS011;54478;48.684;20.114;2024-01-10T06:05:38;21.05;;;7.65;;
63120;SDS011;54478;48.684;20.114;2024-01-10T06:08:06;12.70;;;6.40;;
63120;SDS011;54478;48.684;20.114;2024-01-10T06:10:35;10.63;;;6.25;;
63120;SDS011;54478;48.684;20.114;2024-01-10T06:13:03;18.02;;;8.38;;
63120;SDS011;54478;48.684;20.114;2024-01-10T06:15:29;21.30;;;9.32;;
63120;SDS011;54478;48.684;20.114;2024-01-10T06:17:57;17.33;;;7.30;;
63120;SDS011;54478;48.684;20.114;2024-01-10T06:20:25;7.30;;;4.70;;
63120;SDS011;54478;48.684;20.114;2024-01-10T06:22:53;9.95;;;6.10;;
63120;SDS011;54478;48.684;20.114;2024-01-10T06:25:21;14.50;;;4.95;;
63120;SDS011;54478;48.684;20.114;2024-01-10T06:27:49;7.88;;;5.80;;
63120;SDS011;54478;48.684;20.114;2024-01-10T06:30:17;10.52;;;4.70;;
63120;SDS011;54478;48.684;20.114;2024-01-10T06:32:45;11.15;;;7.65;;
63120;SDS011;54478;48.684;20.114;2024-01-10T06:35:13;12.40;;;7.22;;
63120;SDS011;54478;48.684;20.114;2024-01-10T06:37:42;14.50;;;7.65;;
63120;SDS011;54478;48.684;20.114;2024-01-10T06:40:12;26.77;;;10.52;;
63120;SDS011;54478;48.684;20.114;2024-01-10T06:42:40;19.75;;;7.30;;
63120;SDS011;54478;48.684;20.114;2024-01-10T06:45:08;9.48;;;6.55;;
63120;SDS011;54478;48.684;20.114;2024-01-10T06:47:36;14.73;;;8.38;;
63120;SDS011;54478;48.684;20.114;2024-01-10T06:50:05;20.77;;;11.07;;
63120;SDS011;54478;48.684;20.114;2024-01-10T06:52:34;36.53;;;8.35;;
63120;SDS011;54478;48.684;20.114;2024-01-10T06:55:02;24.02;;;12.68;;
63120;SDS011;54478;48.684;20.114;2024-01-10T06:57:32;13.88;;;6.30;;
63120;SDS011;54478;48.684;20.114;2024-01-10T07:00:00;7.80;;;5.47;;
63120;SDS011;54478;48.684;20.114;2024-01-10T07:02:31;4.05;;;3.65;;
63120;SDS011;54478;48.684;20.114;2024-01-10T07:05:00;15.75;;;5.13;;
63120;SDS011;54478;48.684;20.114;2024-01-10T07:07:28;10.98;;;6.18;;
63120;SDS011;54478;48.684;20.114;2024-01-10T07:09:53;16.17;;;5.90;;
63120;SDS011;54478;48.684;20.114;2024-01-10T07:12:21;9.43;;;5.47;;
63120;SDS011;54478;48.684;20.114;2024-01-10T07:14:49;10.23;;;5.88;;
63120;SDS011;54478;48.684;20.114;2024-01-10T07:17:18;11.85;;;4.70;;
63120;SDS011;54478;48.684;20.114;2024-01-10T07:19:46;22.48;;;10.80;;
63120;SDS011;54478;48.684;20.114;2024-01-10T07:22:14;26.58;;;8.27;;
63120;SDS011;54478;48.684;20.114;2024-01-10T07:24:42;24.33;;;10.93;;
63120;SDS011;54478;48.684;20.114;2024-01-10T07:27:10;19.23;;;11.38;;
63120;SDS011;54478;48.684;20.114;2024-01-10T07:29:40;7.13;;;5.10;;
63120;SDS011;54478;48.684;20.114;2024-01-10T07:32:08;29.00;;;13.43;;
63120;SDS011;54478;48.684;20.114;2024-01-10T07:34:41;31.25;;;13.32;;
63120;SDS011;54478;48.684;20.114;2024-01-10T07:37:09;54.03;;;18.75;;
63120;SDS011;54478;48.684;20.114;2024-01-10T07:39:38;41.67;;;16.80;;
63120;SDS011;54478;48.684;20.114;2024-01-10T07:42:06;35.25;;;15.40;;
63120;SDS011;54478;48.684;20.114;2024-01-10T07:44:35;41.58;;;14.02;;
63120;SDS011;54478;48.684;20.114;2024-01-10T07:47:03;22.17;;;10.88;;
63120;SDS011;54478;48.684;20.114;2024-01-10T07:49:31;11.45;;;7.57;;
63120;SDS011;54478;48.684;20.114;2024-01-10T07:52:00;18.10;;;10.50;;
63120;SDS011;54478;48.684;20.114;2024-01-10T07:54:28;19.55;;;10.93;;
63120;SDS011;54478;48.684;20.114;2024-01-10T07:56:56;30.10;;;13.95;;
63120;SDS011;54478;48.684;20.114;2024-01-10T07:59:24;23.50;;;10.25;;
63120;SDS011;54478;48.684;20.114;2024-01-10T08:01:55;27.38;;;11.57;;
63120;SDS011;54478;48.684;20.114;2024-01-10T08:04:26;16.13;;;10.18;;
63120;SDS011;54478;48.684;20.114;2024-01-10T08:06:53;19.42;;;11.40;;
63120;SDS011;54478;48.684;20.114;2024-01-10T08:09:18;26.13;;;11.77;;
63120;SDS011;54478;48.684;20.114;2024-01-10T08:11:49;29.73;;;15.30;;
63120;SDS011;54478;48.684;20.114;2024-01-10T08:14:18;37.13;;;12.50;;
63120;SDS011;54478;48.684;20.114;2024-01-10T08:16:46;30.35;;;13.05;;
63120;SDS011;54478;48.684;20.114;2024-01-10T08:19:14;34.08;;;14.15;;
63120;SDS011;54478;48.684;20.114;2024-01-10T08:21:42;23.00;;;11.07;;
63120;SDS011;54478;48.684;20.114;2024-01-10T08:24:10;21.58;;;12.77;;
63120;SDS011;54478;48.684;20.114;2024-01-10T08:26:38;34.50;;;15.90;;
63120;SDS011;54478;48.684;20.114;2024-01-10T08:29:06;38.10;;;15.35;;
63120;SDS011;54478;48.684;20.114;2024-01-10T08:31:35;24.40;;;13.68;;
63120;SDS011;54478;48.684;20.114;2024-01-10T08:34:03;23.42;;;12.23;;
63120;SDS011;54478;48.684;20.114;2024-01-10T08:36:31;21.08;;;14.07;;
63120;SDS011;54478;48.684;20.114;2024-01-10T08:38:59;21.38;;;11.80;;
63120;SDS011;54478;48.684;20.114;2024-01-10T08:41:28;20.38;;;11.02;;
63120;SDS011;54478;48.684;20.114;2024-01-10T08:43:56;28.40;;;14.30;;
63120;SDS011;54478;48.684;20.114;2024-01-10T08:46:24;34.85;;;14.25;;
63120;SDS011;54478;48.684;20.114;2024-01-10T08:48:52;26.73;;;13.38;;
63120;SDS011;54478;48.684;20.114;2024-01-10T08:51:21;37.55;;;14.57;;
63120;SDS011;54478;48.684;20.114;2024-01-10T08:53:49;26.63;;;13.45;;
63120;SDS011;54478;48.684;20.114;2024-01-10T08:56:17;29.42;;;15.95;;
63120;SDS011;54478;48.684;20.114;2024-01-10T08:58:45;29.00;;;14.10;;
63120;SDS011;54478;48.684;20.114;2024-01-10T09:01:13;30.65;;;13.43;;
63120;SDS011;54478;48.684;20.114;2024-01-10T09:03:41;22.88;;;12.07;;
63120;SDS011;54478;48.684;20.114;2024-01-10T09:06:10;19.92;;;10.57;;
63120;SDS011;54478;48.684;20.114;2024-01-10T09:08:35;19.15;;;8.57;;
63120;SDS011;54478;48.684;20.114;2024-01-10T09:11:03;16.45;;;5.28;;
63120;SDS011;54478;48.684;20.114;2024-01-10T09:13:32;9.45;;;4.50;;
63120;SDS011;54478;48.684;20.114;2024-01-10T09:16:00;6.90;;;4.32;;
63120;SDS011;54478;48.684;20.114;2024-01-10T09:18:28;10.63;;;4.65;;
63120;SDS011;54478;48.684;20.114;2024-01-10T09:20:56;4.00;;;2.10;;
63120;SDS011;54478;48.684;20.114;2024-01-10T09:23:24;7.82;;;2.03;;
63120;SDS011;54478;48.684;20.114;2024-01-10T09:25:53;7.45;;;3.78;;
63120;SDS011;54478;48.684;20.114;2024-01-10T09:28:21;21.85;;;2.70;;
63120;SDS011;54478;48.684;20.114;2024-01-10T09:30:49;4.53;;;2.72;;
63120;SDS011;54478;48.684;20.114;2024-01-10T09:33:19;4.13;;;2.28;;
63120;SDS011;54478;48.684;20.114;2024-01-10T09:35:48;3.90;;;3.33;;
63120;SDS011;54478;48.684;20.114;2024-01-10T09:38:16;2.90;;;1.67;;
63120;SDS011;54478;48.684;20.114;2024-01-10T09:40:45;11.60;;;3.17;;
63120;SDS011;54478;48.684;20.114;2024-01-10T09:43:13;6.80;;;2.78;;
63120;SDS011;54478;48.684;20.114;2024-01-10T09:45:43;6.40;;;2.88;;
63120;SDS011;54478;48.684;20.114;2024-01-10T09:48:14;4.45;;;2.72;;
63120;SDS011;54478;48.684;20.114;2024-01-10T09:50:46;3.00;;;1.80;;
63120;SDS011;54478;48.684;20.114;2024-01-10T09:53:17;7.00;;;2.97;;
63120;SDS011;54478;48.684;20.114;2024-01-10T09:55:49;7.43;;;3.42;;
63120;SDS011;54478;48.684;20.114;2024-01-10T09:58:16;6.10;;;2.65;;
63120;SDS011;54478;48.684;20.114;2024-01-10T10:00:44;7.70;;;3.65;;
63120;SDS011;54478;48.684;20.114;2024-01-10T10:03:12;4.63;;;2.70;;
63120;SDS011;54478;48.684;20.114;2024-01-10T10:05:41;8.07;;;2.72;;
63120;SDS011;54478;48.684;20.114;2024-01-10T10:08:11;16.35;;;4.28;;
63120;SDS011;54478;48.684;20.114;2024-01-10T10:10:39;11.38;;;3.15;;
63120;SDS011;54478;48.684;20.114;2024-01-10T10:13:11;8.82;;;3.45;;
63120;SDS011;54478;48.684;20.114;2024-01-10T10:16:00;3.75;;;1.98;;
63120;SDS011;54478;48.684;20.114;2024-01-10T10:18:27;10.50;;;2.63;;
63120;SDS011;54478;48.684;20.114;2024-01-10T10:21:12;6.57;;;2.35;;
63120;SDS011;54478;48.684;20.114;2024-01-10T10:23:38;20.10;;;3.78;;
63120;SDS011;54478;48.684;20.114;2024-01-10T10:26:36;17.55;;;3.40;;
63120;SDS011;54478;48.684;20.114;2024-01-10T10:28:55;10.40;;;3.70;;
63120;SDS011;54478;48.684;20.114;2024-01-10T10:31:24;6.70;;;3.80;;
63120;SDS011;54478;48.684;20.114;2024-01-10T10:33:52;5.75;;;3.30;;
63120;SDS011;54478;48.684;20.114;2024-01-10T10:36:21;6.50;;;3.67;;
63120;SDS011;54478;48.684;20.114;2024-01-10T10:38:49;11.25;;;5.05;;
63120;SDS011;54478;48.684;20.114;2024-01-10T10:41:17;9.60;;;4.07;;
63120;SDS011;54478;48.684;20.114;2024-01-10T10:43:46;7.57;;;3.00;;
63120;SDS011;54478;48.684;20.114;2024-01-10T10:46:16;9.48;;;3.30;;
63120;SDS011;54478;48.684;20.114;2024-01-10T10:48:44;8.63;;;3.65;;
63120;SDS011;54478;48.684;20.114;2024-01-10T10:51:15;12.20;;;4.18;;
63120;SDS011;54478;48.684;20.114;2024-01-10T10:53:45;3.15;;;2.10;;
63120;SDS011;54478;48.684;20.114;2024-01-10T10:56:14;2.90;;;1.63;;
63120;SDS011;54478;48.684;20.114;2024-01-10T10:58:43;3.00;;;2.20;;
63120;SDS011;54478;48.684;20.114;2024-01-10T11:01:12;33.80;;;3.65;;
63120;SDS011;54478;48.684;20.114;2024-01-10T11:03:41;7.45;;;3.42;;
63120;SDS011;54478;48.684;20.114;2024-01-10T11:06:12;3.85;;;1.92;;
63120;SDS011;54478;48.684;20.114;2024-01-10T11:24:10;8.88;;;2.63;;
63120;SDS011;54478;48.684;20.114;2024-01-10T11:26:38;2.88;;;1.50;;
63120;SDS011;54478;48.684;20.114;2024-01-10T11:29:06;6.55;;;2.28;;
63120;SDS011;54478;48.684;20.114;2024-01-10T11:31:34;12.45;;;3.90;;
63120;SDS011;54478;48.684;20.114;2024-01-10T11:34:02;9.95;;;3.70;;
63120;SDS011;54478;48.684;20.114;2024-01-10T11:36:31;10.43;;;4.70;;
63120;SDS011;54478;48.684;20.114;2024-01-10T11:39:00;10.93;;;5.00;;
63120;SDS011;54478;48.684;20.114;2024-01-10T11:41:38;4.65;;;3.08;;
63120;SDS011;54478;48.684;20.114;2024-01-10T11:46:45;20.10;;;5.68;;
63120;SDS011;54478;48.684;20.114;2024-01-10T11:49:15;10.73;;;4.10;;
63120;SDS011;54478;48.684;20.114;2024-01-10T11:51:47;13.65;;;4.22;;
63120;SDS011;54478;48.684;20.114;2024-01-10T11:57:02;8.60;;;3.20;;
63120;SDS011;54478;48.684;20.114;2024-01-10T11:59:27;15.38;;;3.80;;
63120;SDS011;54478;48.684;20.114;2024-01-10T12:01:58;12.50;;;4.55;;
63120;SDS011;54478;48.684;20.114;2024-01-10T12:04:26;14.85;;;4.70;;
63120;SDS011;54478;48.684;20.114;2024-01-10T12:06:57;5.38;;;2.92;;
63120;SDS011;54478;48.684;20.114;2024-01-10T12:09:23;4.60;;;2.08;;
63120;SDS011;54478;48.684;20.114;2024-01-10T12:11:52;9.27;;;2.88;;
63120;SDS011;54478;48.684;20.114;2024-01-10T12:14:20;6.78;;;2.92;;
63120;SDS011;54478;48.684;20.114;2024-01-10T12:16:47;4.43;;;1.98;;
63120;SDS011;54478;48.684;20.114;2024-01-10T12:19:15;6.10;;;3.15;;
63120;SDS011;54478;48.684;20.114;2024-01-10T12:21:43;4.05;;;2.88;;
63120;SDS011;54478;48.684;20.114;2024-01-10T12:24:11;15.13;;;3.35;;
63120;SDS011;54478;48.684;20.114;2024-01-10T12:26:46;10.75;;;3.08;;
63120;SDS011;54478;48.684;20.114;2024-01-10T12:29:20;7.25;;;3.80;;
63120;SDS011;54478;48.684;20.114;2024-01-10T12:31:46;7.85;;;2.92;;
63120;SDS011;54478;48.684;20.114;2024-01-10T12:34:15;14.85;;;4.00;;
63120;SDS011;54478;48.684;20.114;2024-01-10T12:36:43;7.22;;;3.15;;
63120;SDS011;54478;48.684;20.114;2024-01-10T12:39:11;8.45;;;3.17;;
63120;SDS011;54478;48.684;20.114;2024-01-10T12:41:40;5.38;;;2.92;;
63120;SDS011;54478;48.684;20.114;2024-01-10T12:44:09;8.57;;;4.47;;
63120;SDS011;54478;48.684;20.114;2024-01-10T12:46:49;10.07;;;3.83;;
63120;SDS011;54478;48.684;20.114;2024-01-10T12:49:17;6.47;;;3.38;;
63120;SDS011;54478;48.684;20.114;2024-01-10T12:51:43;13.10;;;3.50;;
63120;SDS011;54478;48.684;20.114;2024-01-10T12:54:11;12.75;;;4.20;;
63120;SDS011;54478;48.684;20.114;2024-01-10T12:56:39;7.43;;;3.15;;
63120;SDS011;54478;48.684;20.114;2024-01-10T12:59:08;7.18;;;3.50;;
63120;SDS011;54478;48.684;20.114;2024-01-10T13:01:37;11.95;;;3.65;;
63120;SDS011;54478;48.684;20.114;2024-01-10T13:04:05;12.75;;;3.53;;
63120;SDS011;54478;48.684;20.114;2024-01-10T13:06:33;20.58;;;6.38;;
63120;SDS011;54478;48.684;20.114;2024-01-10T13:08:59;9.77;;;4.78;;
63120;SDS011;54478;48.684;20.114;2024-01-10T13:11:27;9.80;;;4.18;;
63120;SDS011;54478;48.684;20.114;2024-01-10T13:13:58;10.88;;;4.72;;
63120;SDS011;54478;48.684;20.114;2024-01-10T13:16:26;13.48;;;6.53;;
63120;SDS011;54478;48.684;20.114;2024-01-10T13:18:57;16.23;;;5.43;;
63120;SDS011;54478;48.684;20.114;2024-01-10T13:21:27;11.43;;;4.95;;
63120;SDS011;54478;48.684;20.114;2024-01-10T13:23:55;13.30;;;6.43;;
63120;SDS011;54478;48.684;20.114;2024-01-10T13:26:23;21.48;;;7.22;;
63120;SDS011;54478;48.684;20.114;2024-01-10T13:28:51;15.57;;;5.85;;
63120;SDS011;54478;48.684;20.114;2024-01-10T13:31:19;20.92;;;7.30;;
63120;SDS011;54478;48.684;20.114;2024-01-10T13:33:48;17.58;;;7.60;;
63120;SDS011;54478;48.684;20.114;2024-01-10T13:36:18;29.90;;;10.60;;
63120;SDS011;54478;48.684;20.114;2024-01-10T13:38:47;16.20;;;9.10;;
63120;SDS011;54478;48.684;20.114;2024-01-10T13:41:15;14.20;;;7.63;;
63120;SDS011;54478;48.684;20.114;2024-01-10T13:43:43;17.48;;;8.93;;
63120;SDS011;54478;48.684;20.114;2024-01-10T13:46:11;20.48;;;9.38;;
63120;SDS011;54478;48.684;20.114;2024-01-10T13:48:39;13.60;;;8.20;;
63120;SDS011;54478;48.684;20.114;2024-01-10T13:51:08;16.95;;;8.02;;
63120;SDS011;54478;48.684;20.114;2024-01-10T13:53:38;16.63;;;8.15;;
63120;SDS011;54478;48.684;20.114;2024-01-10T13:56:06;22.27;;;8.38;;
63120;SDS011;54478;48.684;20.114;2024-01-10T13:58:34;15.55;;;7.53;;
63120;SDS011;54478;48.684;20.114;2024-01-10T14:01:02;22.48;;;9.00;;
63120;SDS011;54478;48.684;20.114;2024-01-10T14:03:30;24.48;;;11.20;;
63120;SDS011;54478;48.684;20.114;2024-01-10T14:05:58;30.75;;;11.63;;
63120;SDS011;54478;48.684;20.114;2024-01-10T14:08:26;33.80;;;11.98;;
63120;SDS011;54478;48.684;20.114;2024-01-10T14:10:54;55.75;;;16.52;;
63120;SDS011;54478;48.684;20.114;2024-01-10T14:13:22;24.92;;;13.60;;
63120;SDS011;54478;48.684;20.114;2024-01-10T14:15:54;62.53;;;17.47;;
63120;SDS011;54478;48.684;20.114;2024-01-10T14:18:22;50.67;;;20.15;;
63120;SDS011;54478;48.684;20.114;2024-01-10T14:20:50;39.63;;;17.17;;
63120;SDS011;54478;48.684;20.114;2024-01-10T14:23:18;31.15;;;13.30;;
63120;SDS011;54478;48.684;20.114;2024-01-10T14:25:46;48.13;;;20.40;;
63120;SDS011;54478;48.684;20.114;2024-01-10T14:28:12;135.77;;;50.65;;
63120;SDS011;54478;48.684;20.114;2024-01-10T14:30:40;70.40;;;30.67;;
63120;SDS011;54478;48.684;20.114;2024-01-10T14:33:08;68.32;;;26.05;;
63120;SDS011;54478;48.684;20.114;2024-01-10T14:35:36;51.53;;;21.65;;
63120;SDS011;54478;48.684;20.114;2024-01-10T14:38:04;63.15;;;25.13;;
63120;SDS011;54478;48.684;20.114;2024-01-10T14:40:32;82.13;;;34.78;;
63120;SDS011;54478;48.684;20.114;2024-01-10T14:43:01;99.15;;;42.08;;
63120;SDS011;54478;48.684;20.114;2024-01-10T14:45:29;83.60;;;36.92;;
63120;SDS011;54478;48.684;20.114;2024-01-10T14:47:54;88.65;;;40.67;;
63120;SDS011;54478;48.684;20.114;2024-01-10T14:50:20;85.72;;;39.30;;
63120;SDS011;54478;48.684;20.114;2024-01-10T14:52:49;74.90;;;32.45;;